sensor_id;sensor_type;location;lat;lon;timestamp;temperature;humidity
827;DHT22;395;48.132;11.608;2023-08-17T00:01:34;22.20;1.00
827;DHT22;395;48.132;11.608;2023-08-17T00:04:00;22.10;1.00
827;DHT22;395;48.132;11.608;2023-08-17T00:06:26;22.00;1.00
827;DHT22;395;48.132;11.608;2023-08-17T00:08:51;22.00;1.00
827;DHT22;395;48.132;11.608;2023-08-17T00:11:17;21.90;1.00
827;DHT22;395;48.132;11.608;2023-08-17T00:13:43;21.80;1.00
827;DHT22;395;48.132;11.608;2023-08-17T00:16:09;21.70;1.00
827;DHT22;395;48.132;11.608;2023-08-17T00:18:34;21.80;1.00
827;DHT22;395;48.132;11.608;2023-08-17T00:21:00;21.70;1.00
827;DHT22;395;48.132;11.608;2023-08-17T00:23:25;21.80;1.00
827;DHT22;395;48.132;11.608;2023-08-17T00:25:51;21.80;1.00
827;DHT22;395;48.132;11.608;2023-08-17T00:28:17;21.80;1.00
827;DHT22;395;48.132;11.608;2023-08-17T00:30:42;21.70;1.00
827;DHT22;395;48.132;11.608;2023-08-17T00:33:08;21.80;1.00
827;DHT22;395;48.132;11.608;2023-08-17T00:35:34;21.60;1.00
827;DHT22;395;48.132;11.608;2023-08-17T00:38:00;21.60;1.00
827;DHT22;395;48.132;11.608;2023-08-17T00:40:25;21.60;1.00
827;DHT22;395;48.132;11.608;2023-08-17T00:42:51;21.50;1.00
827;DHT22;395;48.132;11.608;2023-08-17T00:45:18;21.60;1.00
827;DHT22;395;48.132;11.608;2023-08-17T00:47:44;21.50;1.00
827;DHT22;395;48.132;11.608;2023-08-17T00:50:11;21.30;1.00
827;DHT22;395;48.132;11.608;2023-08-17T00:52:38;21.40;1.00
827;DHT22;395;48.132;11.608;2023-08-17T00:55:05;21.40;1.00
827;DHT22;395;48.132;11.608;2023-08-17T00:57:32;21.50;1.00
827;DHT22;395;48.132;11.608;2023-08-17T00:59:58;21.60;1.00
827;DHT22;395;48.132;11.608;2023-08-17T01:02:24;21.60;1.00
827;DHT22;395;48.132;11.608;2023-08-17T01:04:50;21.60;1.00
827;DHT22;395;48.132;11.608;2023-08-17T01:07:16;21.60;1.00
827;DHT22;395;48.132;11.608;2023-08-17T01:09:42;21.70;1.00
827;DHT22;395;48.132;11.608;2023-08-17T01:12:17;21.60;1.00
827;DHT22;395;48.132;11.608;2023-08-17T01:14:52;21.60;1.00
827;DHT22;395;48.132;11.608;2023-08-17T01:17:40;21.60;1.00
827;DHT22;395;48.132;11.608;2023-08-17T01:20:08;21.50;1.00
827;DHT22;395;48.132;11.608;2023-08-17T01:22:40;21.40;1.00
827;DHT22;395;48.132;11.608;2023-08-17T01:25:06;21.40;1.00
827;DHT22;395;48.132;11.608;2023-08-17T01:27:44;21.30;1.00
827;DHT22;395;48.132;11.608;2023-08-17T01:30:13;21.30;1.00
827;DHT22;395;48.132;11.608;2023-08-17T01:33:02;21.30;1.00
827;DHT22;395;48.132;11.608;2023-08-17T01:35:38;21.30;1.00
827;DHT22;395;48.132;11.608;2023-08-17T01:38:11;21.30;1.00
827;DHT22;395;48.132;11.608;2023-08-17T01:40:37;21.20;1.00
827;DHT22;395;48.132;11.608;2023-08-17T01:43:03;21.10;1.00
827;DHT22;395;48.132;11.608;2023-08-17T01:45:29;21.10;1.00
827;DHT22;395;48.132;11.608;2023-08-17T01:47:55;21.00;1.00
827;DHT22;395;48.132;11.608;2023-08-17T01:50:21;21.00;1.00
827;DHT22;395;48.132;11.608;2023-08-17T01:52:47;20.90;1.00
827;DHT22;395;48.132;11.608;2023-08-17T01:55:13;20.90;1.00
827;DHT22;395;48.132;11.608;2023-08-17T01:57:38;21.00;1.00
827;DHT22;395;48.132;11.608;2023-08-17T02:00:05;21.00;3.10
827;DHT22;395;48.132;11.608;2023-08-17T02:02:31;20.90;1.00
827;DHT22;395;48.132;11.608;2023-08-17T02:04:56;20.90;1.00
827;DHT22;395;48.132;11.608;2023-08-17T02:07:22;20.80;1.00
827;DHT22;395;48.132;11.608;2023-08-17T02:09:48;20.80;1.30
827;DHT22;395;48.132;11.608;2023-08-17T02:12:13;20.80;1.80
827;DHT22;395;48.132;11.608;2023-08-17T02:14:39;20.90;1.70
827;DHT22;395;48.132;11.608;2023-08-17T02:17:05;20.80;1.60
827;DHT22;395;48.132;11.608;2023-08-17T02:19:31;20.80;1.90
827;DHT22;395;48.132;11.608;2023-08-17T02:21:58;20.70;2.30
827;DHT22;395;48.132;11.608;2023-08-17T02:24:24;20.70;2.80
827;DHT22;395;48.132;11.608;2023-08-17T02:26:50;20.70;3.20
827;DHT22;395;48.132;11.608;2023-08-17T02:29:16;20.60;3.60
827;DHT22;395;48.132;11.608;2023-08-17T02:31:41;20.60;3.00
827;DHT22;395;48.132;11.608;2023-08-17T02:34:07;20.60;3.10
827;DHT22;395;48.132;11.608;2023-08-17T02:36:33;20.50;3.20
827;DHT22;395;48.132;11.608;2023-08-17T02:38:58;20.50;4.20
827;DHT22;395;48.132;11.608;2023-08-17T02:41:24;20.50;3.70
827;DHT22;395;48.132;11.608;2023-08-17T02:43:50;20.40;5.00
827;DHT22;395;48.132;11.608;2023-08-17T02:46:16;20.30;6.70
827;DHT22;395;48.132;11.608;2023-08-17T02:48:41;20.50;6.70
827;DHT22;395;48.132;11.608;2023-08-17T02:51:07;20.60;3.50
827;DHT22;395;48.132;11.608;2023-08-17T02:53:32;20.50;2.10
827;DHT22;395;48.132;11.608;2023-08-17T02:55:58;20.60;4.30
827;DHT22;395;48.132;11.608;2023-08-17T02:58:24;20.70;6.60
827;DHT22;395;48.132;11.608;2023-08-17T03:00:52;20.80;5.00
827;DHT22;395;48.132;11.608;2023-08-17T03:03:19;21.00;3.40
827;DHT22;395;48.132;11.608;2023-08-17T03:05:44;21.00;1.70
827;DHT22;395;48.132;11.608;2023-08-17T03:08:10;21.00;1.00
827;DHT22;395;48.132;11.608;2023-08-17T03:10:37;20.80;1.00
827;DHT22;395;48.132;11.608;2023-08-17T03:13:03;20.60;1.00
827;DHT22;395;48.132;11.608;2023-08-17T03:15:28;20.50;1.00
827;DHT22;395;48.132;11.608;2023-08-17T03:17:54;20.50;1.00
827;DHT22;395;48.132;11.608;2023-08-17T03:20:20;20.40;1.60
827;DHT22;395;48.132;11.608;2023-08-17T03:22:45;20.30;1.20
827;DHT22;395;48.132;11.608;2023-08-17T03:25:11;20.50;3.00
827;DHT22;395;48.132;11.608;2023-08-17T03:27:36;20.50;1.10
827;DHT22;395;48.132;11.608;2023-08-17T03:30:03;20.50;3.00
827;DHT22;395;48.132;11.608;2023-08-17T03:32:29;20.40;1.00
827;DHT22;395;48.132;11.608;2023-08-17T03:34:55;20.40;1.00
827;DHT22;395;48.132;11.608;2023-08-17T03:37:20;20.40;3.10
827;DHT22;395;48.132;11.608;2023-08-17T03:39:46;20.60;1.30
827;DHT22;395;48.132;11.608;2023-08-17T03:42:12;20.40;1.00
827;DHT22;395;48.132;11.608;2023-08-17T03:44:37;20.30;1.00
827;DHT22;395;48.132;11.608;2023-08-17T03:47:03;20.30;1.00
827;DHT22;395;48.132;11.608;2023-08-17T03:49:29;20.30;1.00
827;DHT22;395;48.132;11.608;2023-08-17T03:51:54;20.40;3.10
827;DHT22;395;48.132;11.608;2023-08-17T03:54:20;20.40;1.00
827;DHT22;395;48.132;11.608;2023-08-17T03:56:45;20.30;1.00
827;DHT22;395;48.132;11.608;2023-08-17T03:59:11;20.30;1.00
827;DHT22;395;48.132;11.608;2023-08-17T04:01:37;20.30;1.00
827;DHT22;395;48.132;11.608;2023-08-17T04:04:02;20.40;1.00
827;DHT22;395;48.132;11.608;2023-08-17T04:06:28;20.30;1.00
827;DHT22;395;48.132;11.608;2023-08-17T04:08:54;20.30;3.90
827;DHT22;395;48.132;11.608;2023-08-17T04:11:20;20.30;1.00
827;DHT22;395;48.132;11.608;2023-08-17T04:13:45;20.30;1.00
827;DHT22;395;48.132;11.608;2023-08-17T04:16:11;20.30;1.00
827;DHT22;395;48.132;11.608;2023-08-17T04:18:36;20.20;1.00
827;DHT22;395;48.132;11.608;2023-08-17T04:21:02;20.10;1.00
827;DHT22;395;48.132;11.608;2023-08-17T04:23:28;20.00;1.00
827;DHT22;395;48.132;11.608;2023-08-17T04:25:54;20.00;1.40
827;DHT22;395;48.132;11.608;2023-08-17T04:28:20;20.10;2.00
827;DHT22;395;48.132;11.608;2023-08-17T04:30:46;20.10;2.70
827;DHT22;395;48.132;11.608;2023-08-17T04:33:12;20.20;3.50
827;DHT22;395;48.132;11.608;2023-08-17T04:35:38;20.20;1.00
827;DHT22;395;48.132;11.608;2023-08-17T04:38:04;20.20;1.60
827;DHT22;395;48.132;11.608;2023-08-17T04:40:30;20.00;1.30
827;DHT22;395;48.132;11.608;2023-08-17T04:42:57;20.10;2.30
827;DHT22;395;48.132;11.608;2023-08-17T04:45:22;20.10;2.20
827;DHT22;395;48.132;11.608;2023-08-17T04:47:48;20.00;2.20
827;DHT22;395;48.132;11.608;2023-08-17T04:50:15;20.00;2.70
827;DHT22;395;48.132;11.608;2023-08-17T04:52:43;20.10;3.10
827;DHT22;395;48.132;11.608;2023-08-17T04:55:09;20.10;1.80
827;DHT22;395;48.132;11.608;2023-08-17T04:57:34;20.20;2.50
827;DHT22;395;48.132;11.608;2023-08-17T05:00:00;20.30;2.80
827;DHT22;395;48.132;11.608;2023-08-17T05:02:26;20.40;1.00
827;DHT22;395;48.132;11.608;2023-08-17T05:04:51;20.30;1.00
827;DHT22;395;48.132;11.608;2023-08-17T05:07:17;20.30;1.50
827;DHT22;395;48.132;11.608;2023-08-17T05:09:43;20.50;4.20
827;DHT22;395;48.132;11.608;2023-08-17T05:12:08;20.60;3.10
827;DHT22;395;48.132;11.608;2023-08-17T05:14:34;20.70;1.00
827;DHT22;395;48.132;11.608;2023-08-17T05:16:59;20.90;1.00
827;DHT22;395;48.132;11.608;2023-08-17T05:19:25;21.00;1.10
827;DHT22;395;48.132;11.608;2023-08-17T05:21:51;21.00;1.00
827;DHT22;395;48.132;11.608;2023-08-17T05:24:17;20.90;1.00
827;DHT22;395;48.132;11.608;2023-08-17T05:26:43;20.90;1.00
827;DHT22;395;48.132;11.608;2023-08-17T05:29:09;20.80;1.00
827;DHT22;395;48.132;11.608;2023-08-17T05:31:34;20.80;1.00
827;DHT22;395;48.132;11.608;2023-08-17T05:34:00;20.90;1.00
827;DHT22;395;48.132;11.608;2023-08-17T05:36:26;21.00;1.20
827;DHT22;395;48.132;11.608;2023-08-17T05:38:51;21.10;1.00
827;DHT22;395;48.132;11.608;2023-08-17T05:41:17;21.20;1.10
827;DHT22;395;48.132;11.608;2023-08-17T05:43:43;21.30;1.00
827;DHT22;395;48.132;11.608;2023-08-17T05:46:09;21.30;1.00
827;DHT22;395;48.132;11.608;2023-08-17T05:48:34;21.30;1.00
827;DHT22;395;48.132;11.608;2023-08-17T05:51:00;21.30;1.00
827;DHT22;395;48.132;11.608;2023-08-17T05:53:26;21.30;1.00
827;DHT22;395;48.132;11.608;2023-08-17T05:55:51;21.40;1.00
827;DHT22;395;48.132;11.608;2023-08-17T05:58:17;21.50;1.00
827;DHT22;395;48.132;11.608;2023-08-17T06:00:42;21.60;1.00
827;DHT22;395;48.132;11.608;2023-08-17T06:03:08;21.50;1.00
827;DHT22;395;48.132;11.608;2023-08-17T06:05:34;21.60;1.00
827;DHT22;395;48.132;11.608;2023-08-17T06:08:00;21.60;1.00
827;DHT22;395;48.132;11.608;2023-08-17T06:10:25;21.70;1.00
827;DHT22;395;48.132;11.608;2023-08-17T06:12:55;21.80;1.00
827;DHT22;395;48.132;11.608;2023-08-17T06:15:21;21.90;1.00
827;DHT22;395;48.132;11.608;2023-08-17T06:17:47;22.00;1.00
827;DHT22;395;48.132;11.608;2023-08-17T06:20:15;22.00;1.00
827;DHT22;395;48.132;11.608;2023-08-17T06:22:41;22.00;1.00
827;DHT22;395;48.132;11.608;2023-08-17T06:25:07;22.00;1.00
827;DHT22;395;48.132;11.608;2023-08-17T06:27:34;22.10;1.00
827;DHT22;395;48.132;11.608;2023-08-17T06:30:00;22.10;1.00
827;DHT22;395;48.132;11.608;2023-08-17T06:32:26;22.10;1.00
827;DHT22;395;48.132;11.608;2023-08-17T06:34:51;22.10;1.00
827;DHT22;395;48.132;11.608;2023-08-17T06:37:19;22.20;1.00
827;DHT22;395;48.132;11.608;2023-08-17T06:39:45;22.20;1.00
827;DHT22;395;48.132;11.608;2023-08-17T06:42:11;22.30;1.00
827;DHT22;395;48.132;11.608;2023-08-17T06:44:37;22.30;1.00
827;DHT22;395;48.132;11.608;2023-08-17T06:47:02;22.30;1.00
827;DHT22;395;48.132;11.608;2023-08-17T06:49:28;22.30;1.00
827;DHT22;395;48.132;11.608;2023-08-17T06:51:54;22.30;1.00
827;DHT22;395;48.132;11.608;2023-08-17T06:54:19;22.40;1.00
827;DHT22;395;48.132;11.608;2023-08-17T06:56:45;22.50;1.00
827;DHT22;395;48.132;11.608;2023-08-17T06:59:11;22.40;1.00
827;DHT22;395;48.132;11.608;2023-08-17T07:01:37;22.60;1.00
827;DHT22;395;48.132;11.608;2023-08-17T07:04:03;22.60;1.00
827;DHT22;395;48.132;11.608;2023-08-17T07:06:28;22.50;1.00
827;DHT22;395;48.132;11.608;2023-08-17T07:08:54;22.60;1.00
827;DHT22;395;48.132;11.608;2023-08-17T07:11:20;22.70;1.00
827;DHT22;395;48.132;11.608;2023-08-17T07:13:46;22.70;1.00
827;DHT22;395;48.132;11.608;2023-08-17T07:16:12;22.80;1.00
827;DHT22;395;48.132;11.608;2023-08-17T07:18:38;22.80;1.00
827;DHT22;395;48.132;11.608;2023-08-17T07:21:03;22.80;1.00
827;DHT22;395;48.132;11.608;2023-08-17T07:23:29;22.80;1.00
827;DHT22;395;48.132;11.608;2023-08-17T07:25:54;22.90;1.00
827;DHT22;395;48.132;11.608;2023-08-17T07:28:20;22.90;1.00
827;DHT22;395;48.132;11.608;2023-08-17T07:30:46;23.00;1.00
827;DHT22;395;48.132;11.608;2023-08-17T07:33:11;23.00;1.00
827;DHT22;395;48.132;11.608;2023-08-17T07:35:37;23.10;1.00
827;DHT22;395;48.132;11.608;2023-08-17T07:38:02;23.10;1.00
827;DHT22;395;48.132;11.608;2023-08-17T07:40:28;23.10;1.00
827;DHT22;395;48.132;11.608;2023-08-17T07:42:54;23.10;1.00
827;DHT22;395;48.132;11.608;2023-08-17T07:45:19;23.10;1.00
827;DHT22;395;48.132;11.608;2023-08-17T07:47:45;23.20;1.00
827;DHT22;395;48.132;11.608;2023-08-17T07:50:11;23.30;1.00
827;DHT22;395;48.132;11.608;2023-08-17T07:52:36;23.30;1.00
827;DHT22;395;48.132;11.608;2023-08-17T07:55:02;23.30;1.00
827;DHT22;395;48.132;11.608;2023-08-17T07:57:28;23.30;1.00
827;DHT22;395;48.132;11.608;2023-08-17T07:59:54;23.40;1.00
827;DHT22;395;48.132;11.608;2023-08-17T08:02:20;23.40;1.00
827;DHT22;395;48.132;11.608;2023-08-17T08:04:45;23.50;1.00
827;DHT22;395;48.132;11.608;2023-08-17T08:07:11;23.50;1.00
827;DHT22;395;48.132;11.608;2023-08-17T08:09:37;23.50;1.00
827;DHT22;395;48.132;11.608;2023-08-17T08:12:03;23.60;1.00
827;DHT22;395;48.132;11.608;2023-08-17T08:14:28;23.60;1.00
827;DHT22;395;48.132;11.608;2023-08-17T08:16:54;23.60;1.00
827;DHT22;395;48.132;11.608;2023-08-17T08:19:20;23.70;1.00
827;DHT22;395;48.132;11.608;2023-08-17T08:21:46;23.70;1.00
827;DHT22;395;48.132;11.608;2023-08-17T08:24:11;23.70;1.00
827;DHT22;395;48.132;11.608;2023-08-17T08:26:37;23.70;1.00
827;DHT22;395;48.132;11.608;2023-08-17T08:29:03;23.80;1.00
827;DHT22;395;48.132;11.608;2023-08-17T08:31:28;23.80;1.00
827;DHT22;395;48.132;11.608;2023-08-17T08:33:54;23.90;1.00
827;DHT22;395;48.132;11.608;2023-08-17T08:36:20;23.90;1.00
827;DHT22;395;48.132;11.608;2023-08-17T08:38:46;24.00;1.00
827;DHT22;395;48.132;11.608;2023-08-17T08:41:12;24.00;1.00
827;DHT22;395;48.132;11.608;2023-08-17T08:43:38;24.00;1.00
827;DHT22;395;48.132;11.608;2023-08-17T08:46:05;24.00;1.00
827;DHT22;395;48.132;11.608;2023-08-17T08:48:31;24.00;1.00
827;DHT22;395;48.132;11.608;2023-08-17T08:50:59;24.00;1.00
827;DHT22;395;48.132;11.608;2023-08-17T08:53:38;24.10;1.00
827;DHT22;395;48.132;11.608;2023-08-17T08:56:05;24.10;1.00
827;DHT22;395;48.132;11.608;2023-08-17T08:58:33;24.20;1.00
827;DHT22;395;48.132;11.608;2023-08-17T09:01:00;24.20;1.00
827;DHT22;395;48.132;11.608;2023-08-17T09:03:26;24.30;1.00
827;DHT22;395;48.132;11.608;2023-08-17T09:05:52;24.30;1.00
827;DHT22;395;48.132;11.608;2023-08-17T09:08:24;24.40;1.00
827;DHT22;395;48.132;11.608;2023-08-17T09:10:52;24.50;1.00
827;DHT22;395;48.132;11.608;2023-08-17T09:13:18;24.50;1.00
827;DHT22;395;48.132;11.608;2023-08-17T09:15:43;24.50;1.00
827;DHT22;395;48.132;11.608;2023-08-17T09:18:10;24.60;1.00
827;DHT22;395;48.132;11.608;2023-08-17T09:20:43;24.60;1.00
827;DHT22;395;48.132;11.608;2023-08-17T09:23:21;24.60;1.00
827;DHT22;395;48.132;11.608;2023-08-17T09:25:50;24.70;1.00
827;DHT22;395;48.132;11.608;2023-08-17T09:28:25;24.70;1.00
827;DHT22;395;48.132;11.608;2023-08-17T09:30:53;24.70;1.00
827;DHT22;395;48.132;11.608;2023-08-17T09:33:20;24.80;1.00
827;DHT22;395;48.132;11.608;2023-08-17T09:35:46;24.80;1.00
827;DHT22;395;48.132;11.608;2023-08-17T09:38:12;24.90;1.00
827;DHT22;395;48.132;11.608;2023-08-17T09:40:38;24.90;1.00
827;DHT22;395;48.132;11.608;2023-08-17T09:43:04;24.90;1.00
827;DHT22;395;48.132;11.608;2023-08-17T09:45:30;24.90;1.00
827;DHT22;395;48.132;11.608;2023-08-17T09:47:59;24.90;1.00
827;DHT22;395;48.132;11.608;2023-08-17T09:50:25;24.90;1.00
827;DHT22;395;48.132;11.608;2023-08-17T09:52:54;24.90;1.00
827;DHT22;395;48.132;11.608;2023-08-17T09:55:22;25.00;1.00
827;DHT22;395;48.132;11.608;2023-08-17T09:57:51;25.00;1.00
827;DHT22;395;48.132;11.608;2023-08-17T10:00:19;25.10;1.00
827;DHT22;395;48.132;11.608;2023-08-17T10:02:45;25.10;1.00
827;DHT22;395;48.132;11.608;2023-08-17T10:05:14;25.10;1.00
827;DHT22;395;48.132;11.608;2023-08-17T10:07:47;25.20;1.00
827;DHT22;395;48.132;11.608;2023-08-17T10:10:21;25.30;1.00
827;DHT22;395;48.132;11.608;2023-08-17T10:15:37;25.50;1.00
827;DHT22;395;48.132;11.608;2023-08-17T10:18:31;25.50;1.00
827;DHT22;395;48.132;11.608;2023-08-17T10:21:02;25.70;1.00
827;DHT22;395;48.132;11.608;2023-08-17T10:23:31;25.80;1.00
827;DHT22;395;48.132;11.608;2023-08-17T10:25:57;25.80;1.00
827;DHT22;395;48.132;11.608;2023-08-17T10:28:25;25.90;1.00
827;DHT22;395;48.132;11.608;2023-08-17T10:30:51;26.00;1.00
827;DHT22;395;48.132;11.608;2023-08-17T10:33:18;26.10;1.00
827;DHT22;395;48.132;11.608;2023-08-17T10:35:44;26.20;1.00
827;DHT22;395;48.132;11.608;2023-08-17T10:38:11;26.20;1.00
827;DHT22;395;48.132;11.608;2023-08-17T10:40:42;26.30;1.00
827;DHT22;395;48.132;11.608;2023-08-17T10:43:08;26.40;1.00
827;DHT22;395;48.132;11.608;2023-08-17T10:45:35;26.50;1.00
827;DHT22;395;48.132;11.608;2023-08-17T10:50:31;26.60;1.00
827;DHT22;395;48.132;11.608;2023-08-17T10:53:03;26.60;1.00
827;DHT22;395;48.132;11.608;2023-08-17T10:55:40;26.70;1.00
827;DHT22;395;48.132;11.608;2023-08-17T10:58:06;26.80;1.00
827;DHT22;395;48.132;11.608;2023-08-17T11:00:37;26.80;1.00
827;DHT22;395;48.132;11.608;2023-08-17T11:03:08;26.90;1.00
827;DHT22;395;48.132;11.608;2023-08-17T11:08:04;26.90;1.00
827;DHT22;395;48.132;11.608;2023-08-17T11:10:31;27.00;1.00
827;DHT22;395;48.132;11.608;2023-08-17T11:12:57;27.00;1.00
827;DHT22;395;48.132;11.608;2023-08-17T11:15:39;27.10;1.00
827;DHT22;395;48.132;11.608;2023-08-17T11:18:07;27.20;1.00
827;DHT22;395;48.132;11.608;2023-08-17T11:20:34;27.20;1.00
827;DHT22;395;48.132;11.608;2023-08-17T11:23:00;27.20;1.00
827;DHT22;395;48.132;11.608;2023-08-17T11:25:27;27.20;1.00
827;DHT22;395;48.132;11.608;2023-08-17T11:27:56;27.20;1.00
827;DHT22;395;48.132;11.608;2023-08-17T11:30:22;27.20;1.00
827;DHT22;395;48.132;11.608;2023-08-17T11:32:52;27.20;1.00
827;DHT22;395;48.132;11.608;2023-08-17T11:35:18;27.20;1.00
827;DHT22;395;48.132;11.608;2023-08-17T11:37:44;27.20;1.00
827;DHT22;395;48.132;11.608;2023-08-17T11:40:12;27.20;1.00
827;DHT22;395;48.132;11.608;2023-08-17T11:42:38;27.20;1.00
827;DHT22;395;48.132;11.608;2023-08-17T11:45:05;27.10;1.00
827;DHT22;395;48.132;11.608;2023-08-17T11:47:32;27.20;1.00
827;DHT22;395;48.132;11.608;2023-08-17T11:50:08;27.20;1.00
827;DHT22;395;48.132;11.608;2023-08-17T11:52:34;27.30;1.00
827;DHT22;395;48.132;11.608;2023-08-17T11:55:02;27.30;1.00
827;DHT22;395;48.132;11.608;2023-08-17T11:57:30;27.20;1.00
827;DHT22;395;48.132;11.608;2023-08-17T11:59:58;27.20;1.00
827;DHT22;395;48.132;11.608;2023-08-17T12:02:25;27.20;1.00
827;DHT22;395;48.132;11.608;2023-08-17T12:04:52;27.20;1.00
827;DHT22;395;48.132;11.608;2023-08-17T12:07:19;27.20;1.00
827;DHT22;395;48.132;11.608;2023-08-17T12:09:48;27.30;1.00
827;DHT22;395;48.132;11.608;2023-08-17T12:12:21;27.30;1.00
827;DHT22;395;48.132;11.608;2023-08-17T12:14:48;27.40;1.00
827;DHT22;395;48.132;11.608;2023-08-17T12:17:15;27.50;1.00
827;DHT22;395;48.132;11.608;2023-08-17T12:19:41;27.50;1.00
827;DHT22;395;48.132;11.608;2023-08-17T12:22:07;27.50;1.00
827;DHT22;395;48.132;11.608;2023-08-17T12:24:33;27.50;1.00
827;DHT22;395;48.132;11.608;2023-08-17T12:27:02;27.50;1.00
827;DHT22;395;48.132;11.608;2023-08-17T12:29:27;27.60;1.00
827;DHT22;395;48.132;11.608;2023-08-17T12:31:53;27.60;1.00
827;DHT22;395;48.132;11.608;2023-08-17T12:34:19;27.60;1.00
827;DHT22;395;48.132;11.608;2023-08-17T12:36:44;27.70;1.00
827;DHT22;395;48.132;11.608;2023-08-17T12:39:10;27.60;1.00
827;DHT22;395;48.132;11.608;2023-08-17T12:41:36;27.70;1.00
827;DHT22;395;48.132;11.608;2023-08-17T12:44:01;27.90;1.00
827;DHT22;395;48.132;11.608;2023-08-17T12:46:27;27.90;1.00
827;DHT22;395;48.132;11.608;2023-08-17T12:48:53;27.90;1.00
827;DHT22;395;48.132;11.608;2023-08-17T12:51:19;27.90;1.00
827;DHT22;395;48.132;11.608;2023-08-17T12:53:44;28.00;1.00
827;DHT22;395;48.132;11.608;2023-08-17T12:56:10;28.00;1.00
827;DHT22;395;48.132;11.608;2023-08-17T12:58:35;28.00;1.00
827;DHT22;395;48.132;11.608;2023-08-17T13:01:02;28.10;1.00
827;DHT22;395;48.132;11.608;2023-08-17T13:03:28;28.10;1.00
827;DHT22;395;48.132;11.608;2023-08-17T13:05:54;28.00;1.00
827;DHT22;395;48.132;11.608;2023-08-17T13:08:20;28.00;1.00
827;DHT22;395;48.132;11.608;2023-08-17T13:10:45;28.10;1.00
827;DHT22;395;48.132;11.608;2023-08-17T13:13:11;28.20;1.00
827;DHT22;395;48.132;11.608;2023-08-17T13:15:36;28.20;1.00
827;DHT22;395;48.132;11.608;2023-08-17T13:18:02;28.30;1.00
827;DHT22;395;48.132;11.608;2023-08-17T13:20:28;28.40;1.00
827;DHT22;395;48.132;11.608;2023-08-17T13:22:54;28.60;1.00
827;DHT22;395;48.132;11.608;2023-08-17T13:25:19;28.80;1.00
827;DHT22;395;48.132;11.608;2023-08-17T13:27:45;28.90;1.00
827;DHT22;395;48.132;11.608;2023-08-17T13:30:11;29.10;1.00
827;DHT22;395;48.132;11.608;2023-08-17T13:32:36;29.20;1.00
827;DHT22;395;48.132;11.608;2023-08-17T13:35:03;29.30;1.00
827;DHT22;395;48.132;11.608;2023-08-17T13:37:28;29.40;1.00
827;DHT22;395;48.132;11.608;2023-08-17T13:39:54;29.50;1.00
827;DHT22;395;48.132;11.608;2023-08-17T13:42:20;29.50;1.00
827;DHT22;395;48.132;11.608;2023-08-17T13:44:46;29.70;1.00
827;DHT22;395;48.132;11.608;2023-08-17T13:47:12;29.80;1.00
827;DHT22;395;48.132;11.608;2023-08-17T13:49:38;29.70;1.00
827;DHT22;395;48.132;11.608;2023-08-17T13:52:04;29.70;1.00
827;DHT22;395;48.132;11.608;2023-08-17T13:54:30;29.60;1.00
827;DHT22;395;48.132;11.608;2023-08-17T13:56:55;29.60;1.00
827;DHT22;395;48.132;11.608;2023-08-17T13:59:21;29.40;1.00
827;DHT22;395;48.132;11.608;2023-08-17T14:01:46;29.30;1.00
827;DHT22;395;48.132;11.608;2023-08-17T14:04:12;29.10;1.00
827;DHT22;395;48.132;11.608;2023-08-17T14:06:40;29.10;1.00
827;DHT22;395;48.132;11.608;2023-08-17T14:09:05;28.90;1.00
827;DHT22;395;48.132;11.608;2023-08-17T14:11:31;28.80;1.00
827;DHT22;395;48.132;11.608;2023-08-17T14:13:57;28.70;1.00
827;DHT22;395;48.132;11.608;2023-08-17T14:16:22;28.60;1.00
827;DHT22;395;48.132;11.608;2023-08-17T14:18:48;28.50;1.00
827;DHT22;395;48.132;11.608;2023-08-17T14:21:14;28.50;1.00
827;DHT22;395;48.132;11.608;2023-08-17T14:23:39;28.40;1.00
827;DHT22;395;48.132;11.608;2023-08-17T14:26:05;28.40;1.00
827;DHT22;395;48.132;11.608;2023-08-17T14:28:31;28.40;1.00
827;DHT22;395;48.132;11.608;2023-08-17T14:30:57;28.50;1.00
827;DHT22;395;48.132;11.608;2023-08-17T14:33:22;28.50;1.00
827;DHT22;395;48.132;11.608;2023-08-17T14:35:48;28.40;1.00
827;DHT22;395;48.132;11.608;2023-08-17T14:38:14;28.50;1.00
827;DHT22;395;48.132;11.608;2023-08-17T14:40:44;28.60;1.00
827;DHT22;395;48.132;11.608;2023-08-17T14:43:13;28.70;1.00
827;DHT22;395;48.132;11.608;2023-08-17T14:45:40;29.00;1.00
827;DHT22;395;48.132;11.608;2023-08-17T14:48:06;29.30;1.00
827;DHT22;395;48.132;11.608;2023-08-17T14:50:33;29.40;1.00
827;DHT22;395;48.132;11.608;2023-08-17T14:52:59;29.60;1.00
827;DHT22;395;48.132;11.608;2023-08-17T14:55:30;29.80;1.00
827;DHT22;395;48.132;11.608;2023-08-17T14:57:56;29.90;1.00
827;DHT22;395;48.132;11.608;2023-08-17T15:00:23;30.10;1.00
827;DHT22;395;48.132;11.608;2023-08-17T15:02:49;30.30;1.00
827;DHT22;395;48.132;11.608;2023-08-17T15:05:15;30.40;1.00
827;DHT22;395;48.132;11.608;2023-08-17T15:07:41;30.60;1.00
827;DHT22;395;48.132;11.608;2023-08-17T15:10:06;30.70;1.00
827;DHT22;395;48.132;11.608;2023-08-17T15:12:32;30.90;1.00
